Skip Navigation Links
NOAA logo - Click to go to the NOAA homepage
NOAA's National Weather Service
Alaska Aviation Weather Unit
  NWS logo - Click to go to the NWS homepage
Left Navbar Graphic     21 AKDT = 05 GMT

   
NOAA is celebrating 200 years of science, service, and stewardship. Visit the NOAA 200th celebration Web site to learn more.
USA.gov is the U.S. Government's official Web portal to all Federal, state and local government Web resources and services.
Facebook
NWS on Facebook

AAWU Home :: Display TAF Add Bookmark
METAR PASL 262336Z AUTO 21005KT 10SM CLR 11/01 A2956 RMK AO1=

METAR PASL 262356Z AUTO 22004KT 10SM FEW043 11/01 A2956 RMK AO1 10110
     20010 401101020 57010=

METAR PASL 270056Z AUTO 01003KT 10SM BKN060 BKN075 11/02 A2956 RMK
     AO1=

METAR PASL 270116Z AUTO 32003KT 10SM FEW041 FEW048 SCT060 11/01 A2956
     RMK AO1=

METAR PASL 270156Z AUTO 00000KT 10SM FEW046 SCT055 OVC080 12/01
 A2956 RMK AO1=

METAR PASL 270216Z AUTO 15006KT 10SM SCT042 OVC060 09/02 A2956 RMK
     AO1=

METAR PASL 270236Z AUTO 05008G15KT 9SM SCT033 BKN042 OVC049 09/02
 A2957 RMK AO1=

PASL 270256Z AUTO 04003KT 6SM BKN033 OVC040 07/03 A2958 RMK AO1
     52007=

METAR PASL 270316Z AUTO 00000KT 10SM SCT030 BKN038 07/03 A2958 RMK
     AO1=

METAR PASL 270356Z AUTO 00000KT 10SM FEW046 FEW060 07/04 A2958 RMK
     AO1=

METAR PASL 270416Z AUTO 00000KT 10SM FEW080 07/04 A2958 RMK AO1=

METAR PASL 270436Z AUTO 00000KT 10SM CLR 07/04 A2958 RMK AO1=

METAR PASL 270456Z AUTO 00000KT 10SM SCT065 07/03 A2958 RMK AO1=


NOAA's National Weather Service
Alaska Aviation Weather Unit
6930 Sand Lake Road
Anchorage, AK 99502-1845
Disclaimer
Credits
Glossary
Privacy Policy
About Us
Career Opportunities
Contact AAWU Internet Services Site last modified: April, 17th 2012